createdAt,value
2018-08-03T00:02:22.051Z,8.10
2018-08-03T00:04:50.693Z,7.00
2018-08-03T00:07:19.116Z,6.60
2018-08-03T00:09:47.520Z,6.50
2018-08-03T00:12:16.067Z,9.27
2018-08-03T00:14:44.413Z,11.50
2018-08-03T00:17:12.921Z,10.57
2018-08-03T00:19:41.778Z,13.67
2018-08-03T00:22:10.266Z,8.90
2018-08-03T00:24:38.666Z,12.40
2018-08-03T00:27:07.082Z,11.23
2018-08-03T00:29:35.422Z,10.63
2018-08-03T00:32:03.941Z,9.30
2018-08-03T00:34:32.307Z,10.70
2018-08-03T00:37:00.763Z,9.03
2018-08-03T00:39:29.165Z,10.33
2018-08-03T00:41:57.655Z,9.67
2018-08-03T00:44:26.148Z,11.53
2018-08-03T00:46:54.586Z,10.60
2018-08-03T00:49:23.045Z,15.10
2018-08-03T00:51:51.147Z,17.10
2018-08-03T00:54:19.673Z,18.50
2018-08-03T00:56:48.355Z,20.17
2018-08-03T00:59:16.844Z,21.57
2018-08-03T01:01:45.298Z,19.60
2018-08-03T01:04:13.766Z,18.37
2018-08-03T01:06:41.960Z,18.97
2018-08-03T01:09:11.984Z,19.03
2018-08-03T01:11:40.467Z,18.07
2018-08-03T01:14:09.550Z,15.17
2018-08-03T01:16:40.559Z,17.83
2018-08-03T01:19:11.597Z,14.97
2018-08-03T01:21:40.221Z,16.00
2018-08-03T01:24:09.301Z,17.73
2018-08-03T01:26:37.982Z,14.50
2018-08-03T01:29:06.435Z,15.23
2018-08-03T01:31:35.031Z,15.40
2018-08-03T01:34:03.827Z,16.97
2018-08-03T01:36:33.705Z,15.20
2018-08-03T01:39:04.534Z,20.00
2018-08-03T01:41:33.110Z,16.43
2018-08-03T01:44:02.014Z,16.73
2018-08-03T01:46:31.470Z,16.70
2018-08-03T01:49:00.737Z,17.83
2018-08-03T01:51:29.565Z,19.27
2018-08-03T01:53:59.659Z,20.07
2018-08-03T01:56:28.463Z,20.00
2018-08-03T01:58:57.378Z,21.00
2018-08-03T02:01:26.307Z,21.37
2018-08-03T02:03:54.976Z,22.90
2018-08-03T02:06:23.734Z,22.30
2018-08-03T02:08:52.450Z,19.63
2018-08-03T02:11:21.175Z,20.37
2018-08-03T02:13:50.258Z,19.93
2018-08-03T02:16:19.652Z,18.70
2018-08-03T02:18:48.434Z,21.80
2018-08-03T02:21:17.057Z,20.13
2018-08-03T02:23:45.719Z,18.90
2018-08-03T02:26:14.457Z,17.73
2018-08-03T02:28:44.080Z,19.10
2018-08-03T02:31:12.653Z,18.50
2018-08-03T02:33:44.163Z,18.00
2018-08-03T02:36:15.594Z,19.83
2018-08-03T02:38:45.003Z,21.20
2018-08-03T02:41:13.586Z,18.53
2018-08-03T02:43:42.180Z,20.20
2018-08-03T02:46:10.824Z,18.93
2018-08-03T02:48:39.500Z,19.00
2018-08-03T02:51:08.015Z,21.60
2018-08-03T02:53:36.593Z,18.83
2018-08-03T02:56:05.244Z,19.30
2018-08-03T02:58:33.643Z,20.13
2018-08-03T03:01:02.229Z,17.77
2018-08-03T03:03:31.261Z,19.83
2018-08-03T03:06:00.200Z,21.37
2018-08-03T03:08:29.370Z,22.30
2018-08-03T03:10:57.969Z,22.87
2018-08-03T03:13:26.485Z,22.03
2018-08-03T03:15:56.060Z,19.87
2018-08-03T03:18:24.650Z,21.47
2018-08-03T03:20:53.767Z,21.30
2018-08-03T03:23:22.547Z,21.27
2018-08-03T03:25:51.165Z,21.93
2018-08-03T03:28:19.798Z,21.67
2018-08-03T03:30:48.438Z,21.03
2018-08-03T03:33:17.131Z,20.00
2018-08-03T03:35:45.809Z,22.27
2018-08-03T03:38:16.050Z,25.37
2018-08-03T03:40:44.797Z,24.80
2018-08-03T03:43:13.397Z,22.70
2018-08-03T03:45:42.131Z,22.03
2018-08-03T03:48:11.397Z,24.20
2018-08-03T03:50:39.687Z,22.43
2018-08-03T03:53:08.682Z,24.97
2018-08-03T03:55:37.340Z,26.63
2018-08-03T03:58:05.873Z,25.17
2018-08-03T04:00:34.568Z,23.13
2018-08-03T04:03:04.094Z,23.30
2018-08-03T04:05:33.253Z,23.30
2018-08-03T04:08:01.847Z,24.33
2018-08-03T04:10:30.551Z,23.23
2018-08-03T04:12:59.328Z,23.37
2018-08-03T04:15:28.080Z,22.97
2018-08-03T04:17:57.376Z,22.17
2018-08-03T04:20:25.609Z,25.13
2018-08-03T04:22:53.916Z,23.67
2018-08-03T04:25:22.643Z,21.60
2018-08-03T04:27:51.391Z,24.90
2018-08-03T04:30:20.565Z,26.07
2018-08-03T04:32:49.455Z,23.57
2018-08-03T04:35:18.079Z,22.83
2018-08-03T04:37:47.295Z,25.07
2018-08-03T04:40:15.872Z,24.40
2018-08-03T04:42:45.461Z,23.37
2018-08-03T04:45:14.966Z,24.43
2018-08-03T04:47:44.746Z,25.20
2018-08-03T04:50:13.650Z,28.10
2018-08-03T04:52:43.940Z,25.77
2018-08-03T04:55:16.399Z,25.43
2018-08-03T04:57:46.734Z,25.70
2018-08-03T05:00:15.623Z,26.90
2018-08-03T05:02:45.976Z,27.67
2018-08-03T05:05:17.310Z,27.23
2018-08-03T05:07:49.491Z,25.10
2018-08-03T05:10:18.177Z,27.47
2018-08-03T05:12:48.174Z,27.50
2018-08-03T05:15:18.988Z,25.53
2018-08-03T05:17:47.652Z,27.27
2018-08-03T05:20:17.098Z,25.30
2018-08-03T05:22:46.156Z,24.37
2018-08-03T05:25:18.940Z,26.03
2018-08-03T05:27:48.120Z,26.50
2018-08-03T05:30:17.711Z,26.07
2018-08-03T05:32:47.020Z,28.03
2018-08-03T05:35:16.408Z,26.23
2018-08-03T05:37:45.129Z,27.77
2018-08-03T05:40:14.683Z,30.10
2018-08-03T05:42:44.010Z,30.27
2018-08-03T05:45:12.855Z,27.80
2018-08-03T05:47:44.535Z,29.97
2018-08-03T05:50:15.067Z,26.00
2018-08-03T05:52:46.120Z,30.33
2018-08-03T05:55:14.908Z,30.03
2018-08-03T05:57:44.391Z,32.10
2018-08-03T06:00:16.243Z,32.07
2018-08-03T06:02:45.491Z,28.53
2018-08-03T06:05:16.586Z,29.00
2018-08-03T06:07:47.659Z,27.67
2018-08-03T06:10:18.952Z,28.13
2018-08-03T06:12:48.367Z,27.53
2018-08-03T06:15:18.359Z,25.83
2018-08-03T06:17:48.553Z,25.30
2018-08-03T06:20:17.475Z,25.33
2018-08-03T06:22:47.145Z,25.20
2018-08-03T06:25:17.219Z,24.23
2018-08-03T06:27:48.015Z,23.43
2018-08-03T06:30:16.807Z,21.63
2018-08-03T06:32:46.655Z,22.70
2018-08-03T06:35:16.659Z,22.17
2018-08-03T06:37:46.173Z,22.77
2018-08-03T06:40:19.665Z,20.73
2018-08-03T06:42:49.567Z,21.50
2018-08-03T06:45:19.769Z,18.53
2018-08-03T06:47:50.291Z,19.90
2018-08-03T06:50:20.174Z,17.13
2018-08-03T06:52:49.740Z,17.40
2018-08-03T06:55:18.987Z,18.23
2018-08-03T06:57:49.231Z,16.50
2018-08-03T07:00:18.738Z,15.00
2018-08-03T07:02:50.532Z,15.50
2018-08-03T07:05:21.290Z,15.43
2018-08-03T07:07:50.563Z,14.57
2018-08-03T07:10:20.440Z,14.10
2018-08-03T07:12:52.372Z,13.97
2018-08-03T07:15:21.045Z,14.80
2018-08-03T07:17:49.881Z,13.50
2018-08-03T07:20:20.832Z,13.03
2018-08-03T07:22:49.795Z,12.80
2018-08-03T07:25:21.584Z,13.67
2018-08-03T07:27:50.305Z,13.80
2018-08-03T07:30:19.897Z,12.83
2018-08-03T07:32:49.602Z,11.10
2018-08-03T07:35:18.443Z,13.33
2018-08-03T07:37:47.329Z,12.57
2018-08-03T07:40:16.150Z,11.37
2018-08-03T07:42:47.394Z,11.63
2018-08-03T07:45:30.567Z,10.77
2018-08-03T07:48:07.275Z,10.60
2018-08-03T07:50:37.470Z,11.33
2018-08-03T07:53:12.990Z,11.37
2018-08-03T07:55:45.193Z,11.67
2018-08-03T07:58:15.130Z,10.20
2018-08-03T08:00:46.019Z,11.23
2018-08-03T08:03:18.959Z,10.33
2018-08-03T08:15:37.875Z,10.23
2018-08-03T08:18:09.897Z,7.50
2018-08-03T08:20:39.657Z,9.27
2018-08-03T08:23:09.040Z,8.30
2018-08-03T08:25:40.543Z,7.50
2018-08-03T08:28:12.083Z,6.60
2018-08-03T08:30:43.154Z,7.90
2018-08-03T08:33:13.437Z,8.93
2018-08-03T08:35:43.504Z,8.00
2018-08-03T08:38:12.940Z,10.30
2018-08-03T08:40:43.816Z,7.10
2018-08-03T08:43:14.346Z,7.50
2018-08-03T08:45:44.336Z,6.60
2018-08-03T08:48:15.550Z,7.07
2018-08-03T08:50:45.272Z,7.00
2018-08-03T08:53:14.108Z,6.53
2018-08-03T08:55:43.421Z,6.70
2018-08-03T08:58:12.370Z,7.10
2018-08-03T09:00:41.001Z,6.70
2018-08-03T09:03:10.401Z,7.90
2018-08-03T09:05:41.331Z,7.00
2018-08-03T09:08:11.844Z,7.87
2018-08-03T09:10:40.399Z,5.17
2018-08-03T09:13:09.888Z,5.97
2018-08-03T09:15:41.714Z,5.43
2018-08-03T09:18:12.520Z,5.03
2018-08-03T09:20:42.478Z,4.30
2018-08-03T09:23:11.108Z,4.77
2018-08-03T09:25:40.389Z,6.67
2018-08-03T09:37:54.809Z,7.53
2018-08-03T09:40:26.333Z,5.37
2018-08-03T09:42:58.774Z,4.43
2018-08-03T09:45:28.393Z,5.60
2018-08-03T09:47:58.163Z,5.20
2018-08-03T09:50:29.097Z,4.50
2018-08-03T09:52:59.671Z,4.67
2018-08-03T09:55:33.074Z,4.80
2018-08-03T09:58:04.965Z,4.50
2018-08-03T10:00:40.243Z,4.43
2018-08-03T10:03:09.669Z,3.87
2018-08-03T10:05:42.456Z,5.17
2018-08-03T10:08:14.493Z,4.80
2018-08-03T10:10:44.195Z,6.33
2018-08-03T10:13:14.017Z,6.30
2018-08-03T10:15:43.803Z,4.73
2018-08-03T10:18:13.346Z,4.67
2018-08-03T10:20:44.177Z,5.60
2018-08-03T10:23:20.064Z,6.13
2018-08-03T10:25:50.213Z,5.60
2018-08-03T10:28:21.061Z,4.90
2018-08-03T10:30:52.276Z,4.83
2018-08-03T10:33:24.814Z,3.83
2018-08-03T10:35:54.676Z,5.93
2018-08-03T10:38:25.786Z,5.03
2018-08-03T10:40:56.102Z,6.13
2018-08-03T10:43:26.208Z,5.23
2018-08-03T10:45:56.802Z,4.23
2018-08-03T10:48:26.364Z,4.40
2018-08-03T10:50:58.091Z,3.93
2018-08-03T10:53:28.449Z,4.07
2018-08-03T10:55:59.260Z,6.70
2018-08-03T10:58:28.769Z,4.60
2018-08-03T11:00:58.311Z,5.30
2018-08-03T11:03:27.688Z,4.83
2018-08-03T11:15:45.080Z,6.30
2018-08-03T11:18:15.342Z,5.57
2018-08-03T11:20:45.231Z,6.53
2018-08-03T11:23:15.686Z,4.30
2018-08-03T11:25:46.462Z,6.53
2018-08-03T11:28:17.306Z,5.20
2018-08-03T11:30:46.833Z,5.60
2018-08-03T11:33:15.720Z,6.80
2018-08-03T11:35:45.683Z,6.77
2018-08-03T11:38:15.487Z,4.43
2018-08-03T11:40:44.298Z,4.20
2018-08-03T11:43:14.712Z,5.67
2018-08-03T11:45:43.276Z,3.83
2018-08-03T11:48:15.794Z,7.20
2018-08-03T11:50:45.902Z,4.73
2018-08-03T11:53:15.774Z,4.97
2018-08-03T11:55:44.508Z,6.33
2018-08-03T11:58:13.136Z,5.70
2018-08-03T12:00:42.663Z,5.43
2018-08-03T12:03:12.013Z,5.03
2018-08-03T12:05:42.886Z,5.87
2018-08-03T12:08:12.119Z,4.60
2018-08-03T12:10:42.360Z,5.70
2018-08-03T12:13:11.991Z,5.60
2018-08-03T12:15:41.620Z,5.23
2018-08-03T12:18:13.775Z,5.83
2018-08-03T12:20:46.209Z,5.57
2018-08-03T12:23:19.138Z,5.87
2018-08-03T12:25:49.810Z,4.60
2018-08-03T12:28:19.554Z,7.53
2018-08-03T12:30:49.313Z,5.97
2018-08-03T12:33:19.823Z,5.53
2018-08-03T12:35:50.206Z,4.73
2018-08-03T12:38:20.419Z,4.60
2018-08-03T12:40:49.714Z,4.30
2018-08-03T12:43:18.362Z,5.53
2018-08-03T12:45:47.738Z,5.37
2018-08-03T12:48:17.022Z,6.37
2018-08-03T12:50:45.902Z,4.00
2018-08-03T12:53:15.509Z,4.77
2018-08-03T12:55:44.968Z,4.50
2018-08-03T12:58:14.901Z,4.70
2018-08-03T13:00:43.677Z,5.10
2018-08-03T13:03:12.509Z,5.23
2018-08-03T13:05:41.118Z,4.73
2018-08-03T13:08:10.935Z,5.30
2018-08-03T13:10:41.253Z,7.93
2018-08-03T13:13:11.619Z,4.63
2018-08-03T13:15:41.140Z,4.37
2018-08-03T13:18:10.564Z,6.33
2018-08-03T13:20:40.048Z,5.10
2018-08-03T13:23:09.257Z,4.87
2018-08-03T13:25:38.524Z,6.77
2018-08-03T13:28:07.847Z,5.03
2018-08-03T13:30:37.127Z,5.40
2018-08-03T13:33:06.501Z,4.30
2018-08-03T13:35:35.279Z,5.60
2018-08-03T13:38:05.268Z,5.37
2018-08-03T13:40:34.489Z,8.97
2018-08-03T13:43:08.656Z,4.53
2018-08-03T13:45:37.299Z,4.60
2018-08-03T13:48:12.710Z,4.80
2018-08-03T13:50:42.368Z,4.13
2018-08-03T13:53:14.723Z,4.30
2018-08-03T13:55:43.568Z,3.60
2018-08-03T13:58:13.780Z,5.80
2018-08-03T14:00:44.285Z,4.73
2018-08-03T14:03:13.124Z,4.20
2018-08-03T14:05:42.342Z,4.20
2018-08-03T14:08:13.274Z,6.73
2018-08-03T14:10:42.727Z,6.67
2018-08-03T14:29:57.974Z,4.20
2018-08-03T14:32:27.319Z,3.27
2018-08-03T14:34:56.603Z,3.67
2018-08-03T14:37:26.363Z,3.57
2018-08-03T14:39:55.957Z,4.03
2018-08-03T14:42:24.665Z,3.93
2018-08-03T14:44:56.791Z,2.43
2018-08-03T14:47:29.501Z,3.73
2018-08-03T14:50:00.066Z,4.20
2018-08-03T14:52:30.432Z,3.90
2018-08-03T14:54:59.734Z,4.47
2018-08-03T14:57:28.704Z,2.90
2018-08-03T14:59:59.656Z,2.93
2018-08-03T15:02:30.707Z,3.77
2018-08-03T15:04:59.088Z,2.80
2018-08-03T15:07:29.646Z,3.13
2018-08-03T15:09:58.093Z,3.23
2018-08-03T15:12:28.968Z,3.80
2018-08-03T15:14:57.782Z,4.30
2018-08-03T15:17:27.526Z,3.73
2018-08-03T15:19:56.207Z,2.83
2018-08-03T15:22:26.744Z,2.47
2018-08-03T15:24:55.764Z,2.73
2018-08-03T15:27:25.142Z,2.73
2018-08-03T15:29:55.612Z,2.33
2018-08-03T15:32:26.614Z,2.50
2018-08-03T15:34:55.394Z,2.23
2018-08-03T15:37:24.873Z,2.17
2018-08-03T15:39:53.451Z,3.10
2018-08-03T15:42:22.896Z,2.17
2018-08-03T15:44:52.404Z,2.30
2018-08-03T15:47:27.444Z,2.73
2018-08-03T15:49:58.035Z,3.50
2018-08-03T15:52:33.431Z,2.10
2018-08-03T15:55:02.989Z,3.40
2018-08-03T15:57:33.745Z,2.50
2018-08-03T16:09:48.416Z,3.63
2018-08-03T16:12:17.608Z,2.40
2018-08-03T16:14:47.138Z,3.27
2018-08-03T16:17:18.472Z,3.47
2018-08-03T16:19:47.320Z,2.20
2018-08-03T16:22:18.170Z,2.90
2018-08-03T16:24:48.148Z,2.50
2018-08-03T16:27:18.896Z,3.20
2018-08-03T16:29:48.822Z,2.10
2018-08-03T16:32:19.812Z,3.77
2018-08-03T16:34:48.366Z,2.37
2018-08-03T16:37:17.061Z,2.47
2018-08-03T16:39:46.606Z,2.57
2018-08-03T16:42:17.635Z,2.20
2018-08-03T16:44:46.372Z,2.23
2018-08-03T16:47:16.845Z,2.80
2018-08-03T16:49:47.234Z,2.77
2018-08-03T16:52:19.522Z,3.40
2018-08-03T16:54:49.818Z,4.00
2018-08-03T16:57:18.554Z,4.63
2018-08-03T16:59:48.200Z,3.30
2018-08-03T17:02:20.162Z,4.80
2018-08-03T17:04:49.469Z,3.10
2018-08-03T17:07:19.608Z,7.37
2018-08-03T17:09:48.771Z,4.80
2018-08-03T17:12:17.692Z,3.50
2018-08-03T17:14:46.287Z,5.80
2018-08-03T17:17:18.323Z,4.47
2018-08-03T17:19:48.460Z,4.90
2018-08-03T17:22:18.538Z,2.80
2018-08-03T17:24:48.315Z,3.53
2018-08-03T17:27:17.837Z,3.40
2018-08-03T17:29:47.595Z,4.77
2018-08-03T17:32:19.974Z,6.60
2018-08-03T17:34:50.016Z,2.90
2018-08-03T17:37:20.084Z,2.83
2018-08-03T17:39:48.741Z,4.10
2018-08-03T17:42:23.521Z,5.03
2018-08-03T17:44:52.258Z,6.43
2018-08-03T17:47:21.705Z,4.20
2018-08-03T17:49:51.240Z,3.90
2018-08-03T17:52:21.864Z,3.80
2018-08-03T17:54:51.850Z,3.03
2018-08-03T17:57:20.570Z,2.73
2018-08-03T17:59:50.404Z,4.67
2018-08-03T18:02:19.069Z,5.47
2018-08-03T18:04:47.735Z,5.83
2018-08-03T18:07:16.532Z,4.17
2018-08-03T18:09:46.615Z,3.80
2018-08-03T18:12:15.256Z,5.87
2018-08-03T18:14:45.378Z,3.73
2018-08-03T18:26:59.658Z,5.43
2018-08-03T18:29:28.445Z,3.20
2018-08-03T18:31:58.352Z,3.40
2018-08-03T18:34:27.353Z,3.97
2018-08-03T18:36:56.332Z,3.80
2018-08-03T18:39:25.003Z,5.00
2018-08-03T18:41:54.341Z,3.73
2018-08-03T18:44:23.484Z,3.07
2018-08-03T18:46:52.136Z,3.07
2018-08-03T18:49:21.524Z,2.97
2018-08-03T18:51:51.075Z,3.03
2018-08-03T18:54:21.567Z,2.60
2018-08-03T18:56:50.129Z,4.23
2018-08-03T18:59:18.934Z,4.40
2018-08-03T19:01:47.690Z,3.03
2018-08-03T19:04:16.605Z,2.90
2018-08-03T19:06:48.668Z,3.30
2018-08-03T19:09:17.448Z,3.13
2018-08-03T19:11:45.518Z,5.63
2018-08-03T19:14:14.061Z,2.30
2018-08-03T19:16:43.006Z,3.93
2018-08-03T19:19:12.145Z,5.13
2018-08-03T19:21:45.120Z,3.00
2018-08-03T19:24:14.255Z,2.40
2018-08-03T19:26:43.627Z,2.70
2018-08-03T19:29:12.872Z,4.23
2018-08-03T19:31:41.567Z,4.60
2018-08-03T19:34:10.170Z,4.30
2018-08-03T19:36:39.647Z,3.27
2018-08-03T19:39:10.238Z,4.23
2018-08-03T19:41:38.934Z,2.80
2018-08-03T19:44:10.590Z,4.10
2018-08-03T19:59:41.033Z,5.43
2018-08-03T20:02:10.047Z,4.40
2018-08-03T20:04:38.676Z,3.60
2018-08-03T20:07:08.980Z,3.53
2018-08-03T20:09:38.920Z,4.13
2018-08-03T20:12:09.969Z,2.77
2018-08-03T20:14:43.074Z,3.40
2018-08-03T20:17:12.489Z,4.23
2018-08-03T20:19:41.140Z,3.60
2018-08-03T20:22:17.307Z,2.63
2018-08-03T20:24:47.985Z,3.87
2018-08-03T20:27:16.723Z,3.00
2018-08-03T20:29:45.621Z,2.60
2018-08-03T20:32:14.424Z,2.33
2018-08-03T20:34:43.010Z,4.50
2018-08-03T20:37:11.456Z,3.90
2018-08-03T20:39:41.906Z,4.80
2018-08-03T20:42:10.564Z,3.57
2018-08-03T20:44:39.395Z,4.20
2018-08-03T20:47:09.199Z,5.20
2018-08-03T20:49:41.748Z,2.90
2018-08-03T20:52:10.747Z,3.60
2018-08-03T20:54:40.980Z,2.90
2018-08-03T20:57:10.850Z,2.60
2018-08-03T20:59:39.428Z,3.37
2018-08-03T21:02:10.557Z,3.07
2018-08-03T21:04:40.438Z,3.30
2018-08-03T21:07:10.135Z,2.67
2018-08-03T21:09:38.783Z,3.60
2018-08-03T21:12:09.719Z,4.67
2018-08-03T21:14:39.085Z,4.23
2018-08-03T21:17:08.629Z,2.57
2018-08-03T21:19:37.367Z,2.30
2018-08-03T21:22:07.872Z,2.40
2018-08-03T21:24:37.461Z,3.40
2018-08-03T21:27:09.738Z,2.83
2018-08-03T21:29:39.471Z,3.50
2018-08-03T21:32:08.986Z,3.70
2018-08-03T21:34:38.832Z,3.60
2018-08-03T21:37:07.765Z,6.20
2018-08-03T21:39:37.230Z,3.30
2018-08-03T21:42:06.401Z,3.10
2018-08-03T21:44:36.278Z,3.80
2018-08-03T21:47:06.034Z,4.40
2018-08-03T21:49:35.584Z,3.53
2018-08-03T21:52:05.126Z,3.90
2018-08-03T21:54:35.612Z,3.40
2018-08-03T21:57:05.500Z,3.30
2018-08-03T21:59:35.266Z,4.30
2018-08-03T22:02:04.768Z,3.47
2018-08-03T22:04:33.594Z,3.00
2018-08-03T22:07:03.081Z,3.90
2018-08-03T22:09:33.828Z,3.93
2018-08-03T22:12:02.712Z,3.70
2018-08-03T22:14:32.230Z,3.30
2018-08-03T22:17:01.085Z,3.37
2018-08-03T22:19:30.357Z,3.17
2018-08-03T22:22:03.802Z,3.33
2018-08-03T22:24:34.952Z,3.47
2018-08-03T22:27:04.317Z,3.50
2018-08-03T22:29:33.851Z,3.70
2018-08-03T22:32:04.551Z,3.53
2018-08-03T22:34:34.876Z,3.87
2018-08-03T22:37:03.535Z,3.50
2018-08-03T22:39:34.469Z,3.50
2018-08-03T22:42:04.097Z,4.23
2018-08-03T22:44:38.060Z,3.93
2018-08-03T22:47:07.831Z,3.50
2018-08-03T22:59:21.642Z,3.90
2018-08-03T23:01:50.569Z,5.40
2018-08-03T23:04:20.534Z,4.60
2018-08-03T23:06:50.424Z,4.27
2018-08-03T23:09:20.025Z,5.60
2018-08-03T23:11:49.039Z,4.60
2018-08-03T23:14:18.971Z,3.80
2018-08-03T23:16:47.960Z,4.40
2018-08-03T23:19:16.739Z,4.17
2018-08-03T23:21:45.536Z,4.03
2018-08-03T23:24:13.921Z,4.27
2018-08-03T23:26:42.675Z,4.27
2018-08-03T23:29:11.463Z,4.73
2018-08-03T23:31:40.527Z,4.83
2018-08-03T23:34:09.172Z,4.47
2018-08-03T23:36:37.883Z,5.60
2018-08-03T23:39:09.487Z,4.67
2018-08-03T23:41:38.220Z,4.97
2018-08-03T23:44:07.657Z,4.93
2018-08-03T23:46:37.310Z,5.43
2018-08-03T23:49:07.888Z,5.80
2018-08-03T23:51:37.332Z,6.40
2018-08-03T23:54:07.249Z,6.50
2018-08-03T23:56:36.644Z,6.27
2018-08-03T23:59:06.376Z,5.80
